Time;durP1;ratioP1;P1;durP2;ratioP2;P2;SDS_P1;SDS_P2;PMS_P1;PMS_P2;Temp;Humidity;BMP_temperature;BMP_pressure;BME280_temperature;BME280_humidity;BME280_pressure;Samples;Min_cycle;Max_cycle;Signal;HPM_P1;HPM_P2
2023/02/27 05:56:30;;;;;;;;;;;12.80;56.90;;;;;;4794103;29;20182;-77
2023/02/27 05:59:07;;;;;;;10.95;1.67;;;12.90;56.90;;;;;;4790872;30;20265;-74
2023/02/27 06:01:33;;;;;;;10.75;1.50;;;13.00;56.80;;;;;;4803755;29;20042;-74
2023/02/27 06:03:59;;;;;;;17.13;2.53;;;13.10;57.00;;;;;;4810158;29;20347;-75
2023/02/27 06:06:25;;;;;;;8.75;1.30;;;13.10;57.20;;;;;;4810110;29;20136;-78
2023/02/27 06:08:50;;;;;;;12.30;1.25;;;13.20;57.40;;;;;;4808626;29;20059;-75
2023/02/27 06:11:16;;;;;;;5.72;1.10;;;13.30;56.70;;;;;;4809770;29;20076;-77
2023/02/27 06:13:42;;;;;;;6.00;1.35;;;13.30;56.60;;;;;;4798070;29;20055;-74
2023/02/27 06:16:13;;;;;;;11.07;1.27;;;13.40;57.00;;;;;;4791971;30;20055;-76
2023/02/27 06:18:39;;;;;;;14.15;1.23;;;13.50;57.30;;;;;;4791556;30;20348;-74
2023/02/27 06:21:05;;;;;;;15.95;1.30;;;13.50;57.60;;;;;;4791792;30;20063;-75
2023/02/27 06:23:31;;;;;;;8.80;1.02;;;13.60;57.80;;;;;;4791047;30;20062;-76
2023/02/27 06:25:57;;;;;;;14.85;1.67;;;13.60;57.70;;;;;;4790266;30;20058;-76
2023/02/27 06:28:23;;;;;;;10.70;1.63;;;13.60;57.70;;;;;;4790964;30;20047;-76
2023/02/27 06:30:53;;;;;;;15.65;1.60;;;13.70;57.70;;;;;;4791340;30;20039;-76
2023/02/27 06:33:19;;;;;;;11.18;1.95;;;13.30;56.90;;;;;;4791434;30;20054;-76
2023/02/27 06:35:47;;;;;;;8.68;1.25;;;13.40;57.40;;;;;;4792103;30;20055;-75
2023/02/27 06:38:16;;;;;;;8.38;1.85;;;13.50;55.80;;;;;;4791094;30;20043;-82
2023/02/27 06:40:41;;;;;;;6.72;1.20;;;13.60;54.50;;;;;;4775425;30;20051;-75
2023/02/27 06:43:08;;;;;;;9.75;1.25;;;13.60;54.30;;;;;;4791262;30;20050;-79
2023/02/27 06:45:36;;;;;;;12.68;1.00;;;13.70;54.40;;;;;;4791412;30;20138;-77
2023/02/27 06:48:02;;;;;;;10.10;1.20;;;13.80;54.60;;;;;;4775416;30;20446;-77
2023/02/27 06:50:28;;;;;;;9.32;2.00;;;13.90;54.60;;;;;;4804223;29;20078;-77
2023/02/27 06:52:54;;;;;;;8.13;1.25;;;13.90;54.60;;;;;;4808300;29;20051;-79
2023/02/27 06:55:21;;;;;;;17.48;2.15;;;14.00;54.60;;;;;;4791795;29;20495;-78
2023/02/27 06:57:47;;;;;;;7.93;1.50;;;14.00;54.80;;;;;;4807821;29;20058;-77
2023/02/27 07:00:14;;;;;;;12.60;2.10;;;14.00;55.10;;;;;;4809657;29;20133;-79
2023/02/27 07:02:40;;;;;;;11.93;1.42;;;14.10;54.90;;;;;;4808844;29;20055;-78
2023/02/27 07:05:06;;;;;;;11.73;1.80;;;14.10;55.30;;;;;;4809388;29;20107;-78
2023/02/27 07:07:33;;;;;;;12.52;1.55;;;14.20;55.70;;;;;;4808673;29;20054;-76
2023/02/27 07:09:58;;;;;;;11.63;1.92;;;14.20;55.60;;;;;;4792882;29;20122;-78
2023/02/27 07:12:24;;;;;;;20.92;2.33;;;14.30;55.70;;;;;;4808688;29;20055;-77
2023/02/27 07:14:51;;;;;;;16.30;1.65;;;14.00;52.90;;;;;;4808923;29;20051;-77
2023/02/27 07:17:16;;;;;;;12.93;1.30;;;14.20;55.80;;;;;;4809338;29;20435;-78
2023/02/27 07:19:42;;;;;;;12.68;2.20;;;14.30;56.10;;;;;;4803288;29;20141;-78
2023/02/27 07:22:08;;;;;;;13.75;1.42;;;14.40;56.30;;;;;;4790797;30;20059;-78
2023/02/27 07:24:35;;;;;;;14.15;2.25;;;14.50;56.40;;;;;;4775182;30;20054;-80
2023/02/27 07:27:01;;;;;;;13.80;1.50;;;14.50;56.30;;;;;;4775150;30;20142;-81
2023/02/27 07:29:26;;;;;;;18.85;1.70;;;14.60;56.30;;;;;;4800857;29;20129;-78
2023/02/27 07:31:52;;;;;;;16.17;1.80;;;14.60;56.20;;;;;;4806598;29;20043;-77
2023/02/27 07:34:18;;;;;;;12.82;2.13;;;14.70;56.10;;;;;;4807047;29;20035;-78
2023/02/27 07:36:44;;;;;;;8.95;1.40;;;14.70;55.90;;;;;;4791862;29;20430;-82
2023/02/27 07:39:13;;;;;;;9.68;1.08;;;14.70;55.70;;;;;;4807702;29;20137;-78
2023/02/27 07:41:39;;;;;;;13.30;1.67;;;14.80;55.50;;;;;;4791461;29;20084;-81
2023/02/27 07:44:07;;;;;;;8.15;0.88;;;14.80;55.40;;;;;;4806495;29;20169;-81
2023/02/27 07:46:33;;;;;;;13.35;0.85;;;14.90;55.30;;;;;;4804320;29;20046;-80
2023/02/27 07:48:59;;;;;;;9.88;1.10;;;14.90;55.90;;;;;;4806684;29;20093;-80
2023/02/27 07:51:41;;;;;;;10.73;1.58;;;14.90;55.50;;;;;;4807350;29;20435;-81
2023/02/27 07:54:07;;;;;;;12.00;1.25;;;14.90;55.20;;;;;;4802863;29;20480;-79
2023/02/27 07:56:33;;;;;;;11.00;1.58;;;14.90;53.70;;;;;;4806583;29;20118;-80
2023/02/27 07:58:59;;;;;;;10.65;1.85;;;14.90;51.70;;;;;;4790289;29;20047;-82
2023/02/27 08:01:29;;;;;;;6.55;1.15;;;14.80;50.20;;;;;;4806950;29;20049;-85
2023/02/27 08:03:57;;;;;;;4.78;0.82;;;14.80;48.30;;;;;;4791496;29;20050;-83
2023/02/27 08:06:23;;;;;;;3.60;1.00;;;14.70;47.40;;;;;;4806080;29;20053;-83
2023/02/27 08:09:13;;;;;;;3.83;0.60;;;14.60;47.10;;;;;;4806468;29;20099;-85
2023/02/27 08:11:39;;;;;;;5.72;0.80;;;14.60;47.10;;;;;;4787997;29;20065;-82
2023/02/27 08:14:16;;;;;;;4.35;0.73;;;14.70;48.00;;;;;;4806922;29;20054;-83
2023/02/27 08:16:42;;;;;;;9.35;1.55;;;14.60;47.80;;;;;;4795413;29;20054;-81
2023/02/27 08:19:08;;;;;;;7.32;0.95;;;14.70;48.10;;;;;;4806562;29;20047;-81
2023/02/27 08:21:34;;;;;;;3.50;0.80;;;14.70;48.50;;;;;;4825133;29;20042;-80
2023/02/27 08:24:00;;;;;;;9.23;0.98;;;14.80;48.90;;;;;;4817437;29;20433;-82
2023/02/27 08:26:26;;;;;;;5.47;1.00;;;14.80;49.30;;;;;;4804869;29;20039;-77
2023/02/27 08:29:07;;;;;;;5.35;0.82;;;14.90;49.60;;;;;;4810541;29;20043;-81
2023/02/27 08:31:50;;;;;;;6.68;0.93;;;14.90;49.80;;;;;;4809854;29;20378;-81
2023/02/27 08:34:16;;;;;;;7.43;0.98;;;15.00;50.60;;;;;;4821962;29;20061;-82
2023/02/27 08:36:45;;;;;;;6.22;0.95;;;15.00;50.20;;;;;;4810562;29;20467;-79
2023/02/27 08:39:11;;;;;;;7.28;1.15;;;15.00;50.50;;;;;;4825378;29;20061;-75
2023/02/27 08:41:43;;;;;;;5.90;0.70;;;15.00;50.80;;;;;;4817047;29;20039;-79
2023/02/27 08:44:22;;;;;;;4.13;0.95;;;15.00;51.00;;;;;;4820797;29;20091;-81
2023/02/27 08:46:50;;;;;;;12.00;1.20;;;15.00;51.30;;;;;;4819004;29;20407;-81
2023/02/27 08:49:23;;;;;;;6.68;0.75;;;15.00;51.50;;;;;;4813791;29;20042;-81
2023/02/27 08:52:22;;;;;;;10.13;0.98;;;15.10;51.70;;;;;;4828084;29;20046;-81
2023/02/27 08:55:15;;;;;;;7.75;0.90;;;15.10;52.00;;;;;;4789844;29;20150;-79
2023/02/27 08:57:41;;;;;;;7.47;0.82;;;15.10;52.00;;;;;;4812324;29;20081;-75
2023/02/27 09:00:13;;;;;;;9.02;0.68;;;15.10;52.10;;;;;;4828817;29;20150;-77
2023/02/27 09:07:00;;;;;;;11.73;1.30;;;15.20;52.70;;;;;;4810483;29;20045;-80
2023/02/27 09:09:32;;;;;;;8.52;1.27;;;15.20;53.20;;;;;;4794744;29;20046;-77
2023/02/27 09:12:06;;;;;;;11.32;1.05;;;15.20;53.30;;;;;;4796379;29;20046;-76
2023/02/27 09:14:35;;;;;;;15.07;1.10;;;15.30;53.40;;;;;;4819753;29;20122;-76
2023/02/27 09:17:00;;;;;;;12.82;1.65;;;15.30;53.50;;;;;;4828956;29;20111;-73
2023/02/27 09:19:29;;;;;;;11.23;1.20;;;15.30;53.50;;;;;;4822361;29;20047;-78
2023/02/27 09:21:57;;;;;;;15.88;2.15;;;15.30;53.40;;;;;;4808719;29;20155;-77
2023/02/27 09:24:26;;;;;;;10.85;1.08;;;15.30;53.40;;;;;;4786764;29;20057;-78
2023/02/27 09:26:52;;;;;;;11.32;1.20;;;15.30;52.00;;;;;;4813398;29;20058;-79
2023/02/27 09:29:17;;;;;;;7.07;1.30;;;15.20;50.80;;;;;;4827554;29;20129;-79
2023/02/27 09:31:43;;;;;;;12.40;0.95;;;15.30;50.80;;;;;;4822047;29;20150;-79
2023/02/27 09:34:09;;;;;;;5.93;0.88;;;15.30;50.80;;;;;;4814880;29;20050;-78
2023/02/27 09:36:35;;;;;;;6.13;1.00;;;15.30;50.80;;;;;;4812716;29;20060;-78
2023/02/27 09:39:06;;;;;;;8.90;1.20;;;15.40;51.00;;;;;;4825875;29;20114;-79
2023/02/27 09:41:51;;;;;;;9.07;1.20;;;15.40;51.10;;;;;;4808443;29;20474;-77
2023/02/27 09:44:35;;;;;;;5.97;1.20;;;15.50;51.20;;;;;;4814556;29;20038;-78
2023/02/27 09:51:31;;;;;;;13.23;1.45;;;15.40;51.30;;;;;;4733798;30;20081;-78
2023/02/27 09:54:13;;;;;;;12.75;1.45;;;15.40;52.00;;;;;;4722593;30;20076;-77
2023/02/27 09:56:48;;;;;;;7.72;1.05;;;15.40;51.90;;;;;;4750184;30;20063;-78
2023/02/27 09:59:26;;;;;;;4.55;1.25;;;15.40;51.70;;;;;;4814683;29;20066;-75
2023/02/27 10:02:07;;;;;;;7.32;1.20;;;15.30;51.50;;;;;;4822862;29;20413;-77
2023/02/27 10:04:42;;;;;;;5.75;1.10;;;15.30;51.60;;;;;;4816787;29;20057;-76
2023/02/27 10:07:29;;;;;;;5.68;1.02;;;15.30;51.80;;;;;;4827009;29;20134;-77
2023/02/27 10:10:13;;;;;;;23.65;2.75;;;15.40;51.80;;;;;;4827898;29;20058;-77
2023/02/27 10:12:49;;;;;;;7.53;1.17;;;15.40;51.90;;;;;;4812672;29;20522;-76
2023/02/27 10:15:26;;;;;;;4.63;1.00;;;15.40;51.90;;;;;;4817549;29;20054;-76
2023/02/27 10:17:58;;;;;;;9.70;0.90;;;15.40;52.00;;;;;;4803721;29;20062;-76
2023/02/27 10:20:32;;;;;;;14.52;1.30;;;15.40;52.00;;;;;;4793388;29;20471;-75
2023/02/27 10:23:03;;;;;;;9.35;1.15;;;15.40;52.00;;;;;;4809250;29;20121;-77
2023/02/27 10:25:32;;;;;;;9.13;1.17;;;15.40;52.20;;;;;;4806988;29;20065;-76
2023/02/27 10:28:10;;;;;;;12.40;2.08;;;15.40;52.50;;;;;;4811983;29;20046;-72
2023/02/27 10:30:36;;;;;;;8.45;1.05;;;15.40;52.50;;;;;;4808115;29;20050;-78
2023/02/27 10:33:53;;;;;;;;;;;;;;;;;;;;;
2023/02/27 10:36:45;;;;;;;14.88;1.35;;;15.40;53.40;;;;;;4774577;29;20079;-77
2023/02/27 10:39:15;;;;;;;10.18;1.52;;;15.40;53.10;;;;;;4815826;29;20046;-78
2023/02/27 10:41:42;;;;;;;7.30;1.50;;;15.60;53.10;;;;;;4824280;29;20058;-82
2023/02/27 10:44:13;;;;;;;7.88;1.60;;;15.60;53.00;;;;;;4793695;29;20447;-74
2023/02/27 10:46:42;;;;;;;16.90;1.60;;;15.70;52.90;;;;;;4819072;29;20454;-84
2023/02/27 10:49:20;;;;;;;7.63;1.08;;;15.30;53.30;;;;;;4804667;29;20061;-81
2023/02/27 10:52:13;;;;;;;13.98;1.50;;;15.50;53.60;;;;;;4821465;29;20059;-80
2023/02/27 10:54:43;;;;;;;12.52;1.20;;;15.60;53.40;;;;;;4809050;29;20047;-81
2023/02/27 10:57:29;;;;;;;5.90;1.17;;;15.70;54.00;;;;;;4821588;29;20078;-80
2023/02/27 11:00:04;;;;;;;9.45;1.15;;;15.80;53.50;;;;;;4825194;29;20046;-80
2023/02/27 11:02:38;;;;;;;12.48;1.45;;;15.80;53.50;;;;;;4798117;29;20043;-79
2023/02/27 11:05:16;;;;;;;8.95;1.27;;;15.90;53.70;;;;;;4808196;29;20082;-78
2023/02/27 11:07:41;;;;;;;8.05;1.20;;;15.90;53.80;;;;;;4809745;29;20079;-81
2023/02/27 11:10:13;;;;;;;10.90;1.60;;;15.90;53.80;;;;;;4810049;29;20129;-78
2023/02/27 11:12:40;;;;;;;12.15;1.73;;;15.90;54.00;;;;;;4816784;29;20043;-79
2023/02/27 11:15:15;;;;;;;11.73;1.73;;;15.90;53.20;;;;;;4807451;29;20045;-79
2023/02/27 11:17:42;;;;;;;8.55;1.00;;;15.90;52.50;;;;;;4819739;29;20132;-78
2023/02/27 11:20:42;;;;;;;8.82;0.90;;;15.90;52.80;;;;;;4810304;29;20058;-78
2023/02/27 11:23:23;;;;;;;6.55;1.38;;;15.90;53.10;;;;;;4812034;29;20038;-80
2023/02/27 11:25:50;;;;;;;8.07;0.70;;;15.90;53.40;;;;;;4808283;29;20089;-78
2023/02/27 11:28:23;;;;;;;8.13;1.05;;;16.00;53.50;;;;;;4792207;29;20463;-81
2023/02/27 11:30:58;;;;;;;7.15;0.70;;;16.00;52.70;;;;;;4807215;29;20477;-79
2023/02/27 11:33:25;;;;;;;6.88;1.05;;;15.50;54.30;;;;;;4806888;29;20103;-83
2023/02/27 11:35:53;;;;;;;7.15;1.30;;;15.60;54.60;;;;;;4808217;29;20051;-77
2023/02/27 11:38:31;;;;;;;6.55;0.68;;;15.70;54.90;;;;;;4808075;29;20047;-79
2023/02/27 11:41:08;;;;;;;10.30;1.10;;;15.80;55.00;;;;;;4807104;29;20087;-76
2023/02/27 11:43:40;;;;;;;11.25;0.93;;;15.90;54.60;;;;;;4809084;29;20090;-76
2023/02/27 11:46:24;;;;;;;9.10;0.77;;;15.90;53.50;;;;;;4810538;29;20054;-80
2023/02/27 11:49:19;;;;;;;;;;;16.00;52.20;;;;;;4811082;29;20053;-87
2023/02/27 11:52:06;;;;;;;;;;;16.00;51.70;;;;;;4787208;29;19935;-80
2023/02/27 11:54:48;;;;;;;10.30;1.23;;;16.00;52.40;;;;;;4806751;29;19921;-80
2023/02/27 11:57:37;;;;;;;11.68;0.98;;;16.00;52.70;;;;;;4807708;29;20528;-80
2023/02/27 12:00:15;;;;;;;13.02;1.20;;;16.00;52.10;;;;;;4807892;29;20134;-81
2023/02/27 12:02:55;;;;;;;10.25;0.88;;;16.00;52.00;;;;;;4795094;29;20466;-83
2023/02/27 12:05:29;;;;;;;13.38;1.30;;;16.00;52.20;;;;;;4798369;29;20050;-82
2023/02/27 12:08:21;;;;;;;9.38;1.35;;;16.00;52.60;;;;;;4807952;29;20057;-80
2023/02/27 12:10:54;;;;;;;12.65;1.50;;;16.00;53.10;;;;;;4826154;29;20178;-78
2023/02/27 12:13:32;;;;;;;13.68;1.02;;;16.10;53.10;;;;;;4819755;29;20049;-81
2023/02/27 12:16:29;;;;;;;11.05;1.20;;;16.10;52.80;;;;;;4817041;29;20480;-80
2023/02/27 12:19:03;;;;;;;15.13;1.80;;;16.10;52.70;;;;;;4824982;29;20054;-80
2023/02/27 12:21:35;;;;;;;9.00;1.10;;;16.00;52.60;;;;;;4809856;29;20110;-75
2023/02/27 12:24:07;;;;;;;12.60;1.10;;;16.00;52.80;;;;;;4805175;29;20054;-81
2023/02/27 12:26:42;;;;;;;18.80;2.00;;;15.90;53.10;;;;;;4806695;29;20130;-80
2023/02/27 12:29:17;;;;;;;23.10;1.80;;;15.90;53.50;;;;;;4813768;29;20417;-79
2023/02/27 12:32:12;;;;;;;18.27;2.15;;;15.90;53.60;;;;;;4799030;29;20146;-82
2023/02/27 12:34:48;;;;;;;34.38;2.80;;;15.80;54.20;;;;;;4793145;29;20050;-80
2023/02/27 12:37:20;;;;;;;24.65;1.85;;;15.80;53.50;;;;;;4811955;29;20095;-72
2023/02/27 12:39:46;;;;;;;16.15;2.22;;;15.70;53.50;;;;;;4825955;29;20125;-79
2023/02/27 12:42:18;;;;;;;16.05;1.58;;;15.60;53.30;;;;;;4794939;29;20481;-79
2023/02/27 12:45:08;;;;;;;18.83;2.10;;;15.60;53.40;;;;;;4791761;29;20421;-80
2023/02/27 12:47:51;;;;;;;12.30;1.42;;;15.50;53.00;;;;;;4811997;29;20054;-79
2023/02/27 12:50:20;;;;;;;12.70;1.80;;;15.50;53.20;;;;;;4793052;29;20118;-79
2023/02/27 12:52:59;;;;;;;10.48;1.40;;;15.40;53.40;;;;;;4809562;29;20050;-80
2023/02/27 12:55:29;;;;;;;9.55;1.08;;;15.40;53.50;;;;;;4825822;29;20057;-79
2023/02/27 12:58:16;;;;;;;9.68;1.25;;;15.30;53.60;;;;;;4808722;29;20054;-80
2023/02/27 13:00:52;;;;;;;17.23;1.45;;;15.30;53.70;;;;;;4809433;29;20478;-80
2023/02/27 13:03:36;;;;;;;17.90;1.35;;;15.20;53.80;;;;;;4809880;29;20055;-79
2023/02/27 13:06:28;;;;;;;9.77;1.05;;;15.20;53.90;;;;;;4809860;29;20126;-81
2023/02/27 13:09:31;;;;;;;9.82;1.98;;;15.20;54.00;;;;;;4823883;29;20065;-79
2023/02/27 13:12:35;;;;;;;7.65;1.67;;;15.10;54.10;;;;;;4792821;29;20066;-79
2023/02/27 13:15:14;;;;;;;6.47;0.65;;;15.10;54.20;;;;;;4811598;29;20534;-81
2023/02/27 13:17:48;;;;;;;6.50;0.60;;;15.00;54.30;;;;;;4793964;29;20478;-79
2023/02/27 13:20:39;;;;;;;12.23;1.42;;;15.00;54.40;;;;;;4814347;29;20463;-79
2023/02/27 13:23:10;;;;;;;14.75;1.10;;;14.90;54.40;;;;;;4807873;29;20094;-79
2023/02/27 13:25:39;;;;;;;13.02;1.27;;;14.90;54.60;;;;;;4795273;29;20043;-82
2023/02/27 13:28:15;;;;;;;16.90;1.85;;;14.90;54.90;;;;;;4808976;29;20134;-80
2023/02/27 13:30:46;;;;;;;13.10;1.15;;;14.80;54.90;;;;;;4810603;29;20043;-78
2023/02/27 13:33:40;;;;;;;18.10;2.47;;;14.80;55.10;;;;;;4810484;29;20046;-78
2023/02/27 13:36:05;;;;;;;8.93;1.17;;;14.80;55.10;;;;;;4810323;29;20046;-78
2023/02/27 13:38:43;;;;;;;6.22;0.55;;;14.80;55.10;;;;;;4819383;29;20080;-80
2023/02/27 13:41:26;;;;;;;8.73;1.27;;;14.80;55.30;;;;;;4828502;29;20362;-78
2023/02/27 13:44:17;;;;;;;7.43;1.40;;;14.80;55.60;;;;;;4808601;29;20183;-79
2023/02/27 13:46:43;;;;;;;7.55;0.85;;;14.80;56.00;;;;;;4801335;29;20066;-81
2023/02/27 13:49:12;;;;;;;11.45;1.30;;;14.70;56.10;;;;;;4822769;29;20054;-81
2023/02/27 13:51:45;;;;;;;17.50;2.58;;;14.70;56.50;;;;;;4811277;29;20050;-83
2023/02/27 14:02:17;;;;;;;9.60;1.13;;;14.70;57.40;;;;;;4791133;29;20549;-80
2023/02/27 14:04:54;;;;;;;13.43;1.67;;;14.90;56.90;;;;;;4794957;29;20459;-80
2023/02/27 14:07:24;;;;;;;24.73;2.30;;;15.10;57.20;;;;;;4810444;29;20054;-77
2023/02/27 14:09:58;;;;;;;12.90;1.75;;;15.20;57.10;;;;;;4827872;29;20050;-78
2023/02/27 14:12:41;;;;;;;13.20;1.60;;;15.30;57.10;;;;;;4817214;29;20031;-81
2023/02/27 14:15:38;;;;;;;12.13;1.77;;;15.30;57.10;;;;;;4809218;29;20035;-82
2023/02/27 14:18:45;;;;;;;21.00;1.95;;;15.40;57.40;;;;;;4750445;30;20074;-81
2023/02/27 14:21:16;;;;;;;27.00;2.85;;;15.40;57.60;;;;;;4820547;29;20047;-81
2023/02/27 14:23:53;;;;;;;22.20;3.05;;;15.50;57.50;;;;;;4811546;29;20043;-82
2023/02/27 14:26:29;;;;;;;20.05;2.17;;;15.40;57.50;;;;;;4808287;29;20462;-83
2023/02/27 14:28:56;;;;;;;9.00;1.25;;;15.40;57.60;;;;;;4809123;29;20039;-75
2023/02/27 14:31:30;;;;;;;13.43;2.20;;;15.50;57.60;;;;;;4809465;29;20080;-77
2023/02/27 14:34:03;;;;;;;13.85;2.20;;;15.50;57.50;;;;;;4793158;29;20055;-84
2023/02/27 14:36:34;;;;;;;12.07;1.73;;;15.40;57.40;;;;;;4807159;29;20046;-77
2023/02/27 14:39:03;;;;;;;12.15;1.48;;;15.40;57.40;;;;;;4800704;29;20127;-81
2023/02/27 14:41:48;;;;;;;7.90;1.00;;;15.50;57.40;;;;;;4808245;29;20116;-77
2023/02/27 14:44:26;;;;;;;6.15;0.90;;;15.60;57.40;;;;;;4809127;29;20367;-79
2023/02/27 14:46:54;;;;;;;11.40;1.08;;;15.60;57.30;;;;;;4808748;29;20452;-78
2023/02/27 14:49:27;;;;;;;7.03;1.42;;;15.70;57.20;;;;;;4810872;29;20054;-80
2023/02/27 14:51:53;;;;;;;11.18;1.35;;;15.80;57.20;;;;;;4793278;29;20050;-77
2023/02/27 14:54:25;;;;;;;12.55;1.13;;;15.90;57.10;;;;;;4793255;29;20059;-78
2023/02/27 14:56:54;;;;;;;12.95;1.83;;;16.00;57.20;;;;;;4807748;29;20505;-80
2023/02/27 14:59:21;;;;;;;8.52;1.58;;;16.00;57.10;;;;;;4812700;29;20047;-80
2023/02/27 15:01:47;;;;;;;8.00;1.67;;;16.00;57.10;;;;;;4807970;29;20458;-79
2023/02/27 15:04:19;;;;;;;3.40;1.77;;;16.00;57.40;;;;;;4808358;29;20058;-80
2023/02/27 15:06:53;;;;;;;6.93;2.25;;;16.10;58.20;;;;;;4808713;29;20047;-77
2023/02/27 15:09:34;;;;;;;7.47;2.10;;;16.10;57.70;;;;;;4819003;29;20711;-79
2023/02/27 15:12:01;;;;;;;7.80;2.63;;;16.10;57.70;;;;;;4802410;29;20039;-80
2023/02/27 15:14:32;;;;;;;9.70;2.10;;;16.10;57.90;;;;;;4792455;29;20090;-80
2023/02/27 15:16:58;;;;;;;10.45;2.15;;;16.20;58.10;;;;;;4808636;29;20086;-82
2023/02/27 15:19:28;;;;;;;5.20;1.70;;;16.20;58.10;;;;;;4807862;29;20454;-81
2023/02/27 15:21:59;;;;;;;4.68;1.85;;;16.10;58.10;;;;;;4819609;29;20050;-81
2023/02/27 15:24:31;;;;;;;10.82;2.40;;;16.10;58.10;;;;;;4807473;29;20047;-82
2023/02/27 15:27:06;;;;;;;10.25;2.10;;;16.10;58.20;;;;;;4808605;29;20050;-81
2023/02/27 15:29:43;;;;;;;8.65;2.00;;;16.10;59.10;;;;;;4807777;29;20145;-81
2023/02/27 15:32:37;;;;;;;12.10;2.05;;;16.10;59.40;;;;;;4801442;29;20474;-82
2023/02/27 15:35:11;;;;;;;13.05;2.30;;;16.00;59.70;;;;;;4808734;29;20497;-77
2023/02/27 15:37:37;;;;;;;17.80;3.28;;;16.00;58.80;;;;;;4807793;29;20054;-78
2023/02/27 15:40:08;;;;;;;6.63;1.75;;;15.90;60.40;;;;;;4808046;29;20086;-77
2023/02/27 15:42:36;;;;;;;7.18;1.85;;;15.90;60.50;;;;;;4795860;29;20055;-80
2023/02/27 15:45:05;;;;;;;9.77;1.70;;;15.90;61.10;;;;;;4803898;29;20050;-79
2023/02/27 15:47:32;;;;;;;5.18;1.25;;;15.90;60.20;;;;;;4792533;29;20051;-81
2023/02/27 15:50:10;;;;;;;9.93;1.10;;;15.60;58.20;;;;;;4806439;29;20117;-81
2023/02/27 15:52:49;;;;;;;3.75;0.55;;;15.60;55.80;;;;;;4806951;29;20126;-81
2023/02/27 15:55:24;;;;;;;9.60;1.27;;;15.60;53.10;;;;;;4793556;29;20083;-80
2023/02/27 15:57:53;;;;;;;9.27;1.48;;;15.60;53.70;;;;;;4808083;29;20078;-78
2023/02/27 16:00:24;;;;;;;11.05;1.08;;;15.70;54.70;;;;;;4807844;29;20081;-82
2023/02/27 16:02:57;;;;;;;8.55;0.73;;;15.80;55.50;;;;;;4807225;29;20363;-80
2023/02/27 16:05:23;;;;;;;11.27;0.90;;;15.90;57.30;;;;;;4807625;29;20038;-80
2023/02/27 16:07:49;;;;;;;11.40;1.17;;;15.90;58.40;;;;;;4806660;29;20057;-80
2023/02/27 16:10:26;;;;;;;9.13;1.27;;;16.00;59.50;;;;;;4807656;29;20050;-79
2023/02/27 16:12:52;;;;;;;16.95;1.02;;;16.10;60.60;;;;;;4792199;29;20431;-79
2023/02/27 16:15:20;;;;;;;9.40;1.02;;;16.20;60.70;;;;;;4792108;29;20047;-80
2023/02/27 16:18:20;;;;;;;9.80;0.88;;;16.20;61.30;;;;;;4807344;29;20064;-79
2023/02/27 16:20:57;;;;;;;10.77;1.70;;;16.20;61.90;;;;;;4789201;30;20047;-79
2023/02/27 16:23:33;;;;;;;8.05;0.70;;;16.20;61.90;;;;;;4789956;30;20062;-80
2023/02/27 16:26:26;;;;;;;8.02;1.13;;;16.20;62.40;;;;;;4773943;30;20129;-79
2023/02/27 16:28:56;;;;;;;8.77;1.23;;;16.20;62.80;;;;;;4788820;30;20043;-79
2023/02/27 16:31:28;;;;;;;11.82;1.08;;;16.10;62.60;;;;;;4773747;30;20515;-80
2023/02/27 16:33:59;;;;;;;8.80;1.42;;;16.10;63.00;;;;;;4789824;30;20127;-80
2023/02/27 16:36:29;;;;;;;9.18;0.98;;;16.00;63.10;;;;;;4773755;30;20055;-80
2023/02/27 16:38:55;;;;;;;12.18;1.90;;;16.00;63.40;;;;;;4804458;29;20055;-81
2023/02/27 16:41:22;;;;;;;18.92;1.33;;;16.00;63.10;;;;;;4806414;29;20046;-80
2023/02/27 16:43:49;;;;;;;11.50;1.08;;;15.90;63.00;;;;;;4806906;29;20050;-80
2023/02/27 16:46:20;;;;;;;13.95;1.33;;;15.80;63.20;;;;;;4805304;29;20074;-79
2023/02/27 16:48:53;;;;;;;8.50;1.02;;;15.80;63.20;;;;;;4791899;29;20059;-81
2023/02/27 16:51:22;;;;;;;10.57;1.20;;;15.80;63.10;;;;;;4800493;29;20039;-79
2023/02/27 16:53:50;;;;;;;7.07;0.55;;;15.90;62.10;;;;;;4799245;29;20051;-79
2023/02/27 16:56:16;;;;;;;8.52;1.17;;;15.80;60.40;;;;;;4798431;29;20070;-79
2023/02/27 16:58:43;;;;;;;12.02;1.08;;;15.60;59.20;;;;;;4792606;30;20051;-79
2023/02/27 17:01:12;;;;;;;13.40;1.17;;;15.50;58.60;;;;;;4792560;30;20150;-79
2023/02/27 17:03:39;;;;;;;7.10;0.88;;;15.50;58.70;;;;;;4807297;29;20128;-78
2023/02/27 17:06:06;;;;;;;13.60;1.58;;;15.40;59.20;;;;;;4800507;29;20144;-80
2023/02/27 17:08:34;;;;;;;9.52;1.10;;;15.50;59.90;;;;;;4810576;29;20382;-79
2023/02/27 17:11:00;;;;;;;5.97;1.45;;;15.40;60.20;;;;;;4810057;29;20054;-80
2023/02/27 17:13:25;;;;;;;8.30;1.30;;;15.40;60.40;;;;;;4795102;29;20094;-80
2023/02/27 17:15:52;;;;;;;7.68;1.13;;;15.40;60.50;;;;;;4808729;29;20104;-80
2023/02/27 17:18:21;;;;;;;6.05;1.02;;;15.30;60.50;;;;;;4806225;29;20111;-84
2023/02/27 17:20:52;;;;;;;6.15;0.70;;;15.30;60.70;;;;;;4808970;29;20051;-83
2023/02/27 17:23:19;;;;;;;9.20;1.20;;;15.30;60.40;;;;;;4791446;29;20034;-80
2023/02/27 18:30:23;;;;;;;10.38;2.10;;;13.90;64.80;;;;;;4787512;29;20160;-77
2023/02/27 18:32:49;;;;;;;21.42;3.03;;;14.00;64.30;;;;;;4777886;30;20058;-77
2023/02/27 18:35:15;;;;;;;16.85;2.42;;;14.10;64.50;;;;;;4787109;30;20450;-78
2023/02/27 18:37:41;;;;;;;19.25;2.00;;;14.20;65.30;;;;;;4805581;29;20054;-79
2023/02/27 18:40:08;;;;;;;18.77;2.10;;;14.20;65.90;;;;;;4807033;29;20062;-75
2023/02/27 18:42:34;;;;;;;14.45;2.00;;;14.30;66.40;;;;;;4775573;30;20066;-81
2023/02/27 18:45:00;;;;;;;7.82;1.77;;;14.30;67.00;;;;;;4791028;30;20051;-76
2023/02/27 18:47:27;;;;;;;11.88;1.85;;;14.40;68.40;;;;;;4775610;30;20051;-77
2023/02/27 18:49:53;;;;;;;8.73;1.48;;;14.40;67.70;;;;;;4791636;30;20062;-80
2023/02/27 18:52:19;;;;;;;17.92;2.58;;;14.40;68.10;;;;;;4777517;29;20121;-79
2023/02/27 18:54:45;;;;;;;10.82;1.80;;;14.40;68.60;;;;;;4809366;29;20042;-80
2023/02/27 18:57:13;;;;;;;7.95;1.15;;;14.40;68.70;;;;;;4778211;29;20055;-78
2023/02/27 18:59:40;;;;;;;5.63;1.13;;;14.50;68.60;;;;;;4783629;30;20467;-78
2023/02/27 19:02:12;;;;;;;8.38;1.00;;;14.50;68.70;;;;;;4805888;29;20101;-78
2023/02/27 19:04:38;;;;;;;11.48;1.80;;;14.40;67.60;;;;;;4808300;29;20050;-78
2023/02/27 19:07:04;;;;;;;8.18;1.60;;;14.40;67.30;;;;;;4808841;29;20121;-78
2023/02/27 19:09:31;;;;;;;7.63;1.35;;;14.40;67.30;;;;;;4796015;29;20054;-79
2023/02/27 19:11:58;;;;;;;7.82;1.50;;;14.30;66.90;;;;;;4809531;29;20054;-78
2023/02/27 19:14:24;;;;;;;9.57;1.42;;;14.30;66.40;;;;;;4808572;29;20063;-79
2023/02/27 19:16:50;;;;;;;12.88;1.90;;;14.20;66.10;;;;;;4791803;29;20163;-78
2023/02/27 19:19:17;;;;;;;5.93;1.02;;;14.20;65.80;;;;;;4778291;29;20054;-77
2023/02/27 19:21:44;;;;;;;7.40;1.20;;;14.20;65.70;;;;;;4809041;29;20455;-77
2023/02/27 19:24:12;;;;;;;5.68;1.30;;;14.20;65.70;;;;;;4808737;29;20486;-81
2023/02/27 19:26:37;;;;;;;7.22;1.08;;;14.20;66.00;;;;;;4792535;29;20077;-78
2023/02/27 19:29:03;;;;;;;10.75;1.42;;;14.10;65.70;;;;;;4806150;29;20047;-78
2023/02/27 19:31:30;;;;;;;6.47;1.50;;;14.10;65.80;;;;;;4805249;29;20047;-78
